createdAt,value
2022-11-04T08:04:48.322Z,45.13
2022-11-04T08:07:16.904Z,44.44
2022-11-04T08:09:45.389Z,44.24
2022-11-04T08:12:14.383Z,43.39
2022-11-04T08:14:42.762Z,43.60
2022-11-04T08:17:11.142Z,43.70
2022-11-04T08:19:40.138Z,41.93
2022-11-04T08:22:09.029Z,42.39
2022-11-04T08:24:37.819Z,43.07
2022-11-04T08:27:08.144Z,42.57
2022-11-04T08:29:37.855Z,43.55
2022-11-04T08:32:07.837Z,42.42
2022-11-04T08:34:36.466Z,42.68
2022-11-04T08:37:04.979Z,43.54
2022-11-04T08:39:33.174Z,42.56
2022-11-04T08:42:01.601Z,42.77
2022-11-04T08:44:30.698Z,42.84
2022-11-04T08:46:58.974Z,43.91
2022-11-04T08:49:27.354Z,42.12
2022-11-04T08:52:00.739Z,42.89
2022-11-04T08:54:29.645Z,42.11
2022-11-04T08:56:58.131Z,40.50
2022-11-04T08:59:26.448Z,40.80
2022-11-04T09:01:55.192Z,39.45
2022-11-04T09:04:24.765Z,39.52
2022-11-04T09:06:53.593Z,37.65
2022-11-04T09:09:22.384Z,37.60
2022-11-04T09:11:50.971Z,37.02
2022-11-04T09:14:19.451Z,37.19
2022-11-04T09:16:48.756Z,39.62
2022-11-04T09:19:17.543Z,38.17
2022-11-04T09:21:45.820Z,37.70
2022-11-04T09:24:14.304Z,35.08
2022-11-04T09:26:44.960Z,34.25
2022-11-04T09:29:13.729Z,35.44
2022-11-04T09:31:43.542Z,35.90
2022-11-04T09:34:12.023Z,36.51
2022-11-04T09:36:40.611Z,36.95
2022-11-04T09:39:08.886Z,36.72
2022-11-04T09:41:51.602Z,36.47
2022-11-04T09:44:23.188Z,36.95
2022-11-04T09:46:53.793Z,36.22
2022-11-04T09:49:22.683Z,35.60
2022-11-04T09:51:55.225Z,35.94
2022-11-04T09:54:33.370Z,35.71
2022-11-04T09:57:02.068Z,36.11
2022-11-04T09:59:33.094Z,36.39
2022-11-04T10:02:04.536Z,36.75
2022-11-04T10:04:33.445Z,35.01
2022-11-04T10:07:20.875Z,34.58
2022-11-04T10:10:05.329Z,34.68
2022-11-04T10:12:52.393Z,34.10
2022-11-04T10:15:26.876Z,34.56
2022-11-04T10:17:58.324Z,34.50
2022-11-04T10:20:27.421Z,33.81
2022-11-04T10:22:59.782Z,32.98
2022-11-04T10:25:39.031Z,31.55
2022-11-04T10:28:12.735Z,32.64
2022-11-04T10:30:41.832Z,32.11
2022-11-04T10:33:28.747Z,30.69
2022-11-04T10:36:00.408Z,30.44
2022-11-04T10:38:28.783Z,30.24
2022-11-04T10:40:57.371Z,31.49
2022-11-04T10:43:33.531Z,31.76
2022-11-04T10:46:08.261Z,30.92
2022-11-04T10:48:42.094Z,29.31
2022-11-04T10:51:10.495Z,28.18
2022-11-04T10:53:38.933Z,26.58
2022-11-04T10:56:07.700Z,26.35
2022-11-04T10:58:39.780Z,24.43
2022-11-04T11:01:27.209Z,24.22
2022-11-04T11:03:56.418Z,24.29
2022-11-04T11:06:29.505Z,23.61
2022-11-04T11:09:00.201Z,23.79
2022-11-04T11:11:38.144Z,23.48
2022-11-04T11:14:16.358Z,23.69
2022-11-04T11:16:54.668Z,23.57
2022-11-04T11:19:43.633Z,22.90
2022-11-04T11:22:32.185Z,23.64
2022-11-04T11:25:19.305Z,23.80
2022-11-04T11:28:23.321Z,23.97
2022-11-04T11:30:52.624Z,24.07
2022-11-04T11:33:23.667Z,24.37
2022-11-04T11:36:13.322Z,24.66
2022-11-04T11:38:56.011Z,24.53
2022-11-04T11:41:52.781Z,25.28
2022-11-04T11:44:34.346Z,25.79
2022-11-04T11:47:25.818Z,26.22
2022-11-04T11:50:06.854Z,27.04
2022-11-04T11:52:55.654Z,27.18
2022-11-04T11:55:48.088Z,27.70
2022-11-04T12:01:50.993Z,28.76
2022-11-04T12:10:44.273Z,28.07
2022-11-04T12:13:24.662Z,28.01
2022-11-04T12:16:13.746Z,27.26
2022-11-04T12:18:45.301Z,25.97
2022-11-04T12:21:21.168Z,25.48
2022-11-04T12:24:08.484Z,25.42
2022-11-04T12:26:57.139Z,25.57
2022-11-04T12:29:31.558Z,24.15
2022-11-04T12:32:16.940Z,22.52
2022-11-04T12:34:47.980Z,22.07
2022-11-04T12:37:35.100Z,21.38
2022-11-04T12:40:12.814Z,20.15
2022-11-04T12:42:53.674Z,20.03
2022-11-04T12:45:31.168Z,19.56
2022-11-04T12:48:06.305Z,18.80
2022-11-04T12:50:49.035Z,18.90
2022-11-04T12:53:36.550Z,18.94
2022-11-04T12:56:09.747Z,19.61
2022-11-04T12:58:57.172Z,20.38
2022-11-04T13:01:31.756Z,20.19
2022-11-04T13:04:18.815Z,19.55
2022-11-04T13:06:49.348Z,19.01
2022-11-04T13:09:36.467Z,18.80
2022-11-04T13:12:11.809Z,18.80
2022-11-04T13:14:59.856Z,18.48
2022-11-04T13:17:37.961Z,18.83
2022-11-04T13:20:06.753Z,19.19
2022-11-04T13:22:37.183Z,18.80
2022-11-04T13:25:18.060Z,18.66
2022-11-04T13:27:48.343Z,18.09
2022-11-04T13:30:25.841Z,18.80
2022-11-04T13:33:09.295Z,19.26
2022-11-04T13:35:41.064Z,19.20
2022-11-04T13:38:13.045Z,19.22
2022-11-04T13:40:59.841Z,19.09
2022-11-04T13:43:38.403Z,19.53
2022-11-04T13:46:19.037Z,19.71
2022-11-04T13:48:57.112Z,20.38
2022-11-04T13:51:34.731Z,21.19
2022-11-04T13:54:03.725Z,21.27
2022-11-04T13:56:35.216Z,21.45
2022-11-04T13:59:23.183Z,22.01
2022-11-04T14:02:14.609Z,22.43
2022-11-04T14:04:44.419Z,22.89
2022-11-04T14:07:18.175Z,23.04
2022-11-04T14:09:55.881Z,23.26
2022-11-04T14:12:28.746Z,24.10
2022-11-04T14:15:08.290Z,24.69
2022-11-04T14:17:36.873Z,25.25
2022-11-04T14:20:06.279Z,25.99
2022-11-04T14:22:34.861Z,26.62
2022-11-04T14:25:23.925Z,27.42
2022-11-04T14:28:00.608Z,28.39
2022-11-04T14:30:48.232Z,29.17
2022-11-04T14:33:34.123Z,29.85
2022-11-04T14:36:25.552Z,31.05
2022-11-04T14:38:57.610Z,31.53
2022-11-04T14:41:28.859Z,32.24
2022-11-04T14:44:03.390Z,33.06
2022-11-04T14:46:34.732Z,33.89
2022-11-04T14:49:03.726Z,34.38
2022-11-04T14:51:34.153Z,34.51
2022-11-04T14:54:13.696Z,34.80
2022-11-04T14:56:42.089Z,35.31
2022-11-04T14:59:20.439Z,35.49
2022-11-04T15:01:52.260Z,35.81
2022-11-04T15:04:21.554Z,36.34
2022-11-04T15:07:00.760Z,37.07
2022-11-04T15:09:34.911Z,37.10
2022-11-04T15:12:27.861Z,37.75
2022-11-04T15:14:57.367Z,39.61
2022-11-04T15:17:33.534Z,40.70
2022-11-04T15:20:04.885Z,39.38
2022-11-04T15:22:33.585Z,40.11
2022-11-04T15:25:06.161Z,41.02
2022-11-04T15:27:34.847Z,42.84
2022-11-04T15:30:04.560Z,42.86
2022-11-04T15:32:33.329Z,43.07
2022-11-04T15:35:02.196Z,43.88
2022-11-04T15:37:30.847Z,44.77
2022-11-04T15:39:59.287Z,46.09
2022-11-04T15:42:43.239Z,46.86
2022-11-04T15:45:30.558Z,46.93
2022-11-04T15:48:18.295Z,46.11
2022-11-04T15:50:46.775Z,47.52
2022-11-04T15:53:16.280Z,45.59
2022-11-04T15:55:47.324Z,45.97
2022-11-04T15:58:16.317Z,46.95
2022-11-04T16:00:52.332Z,46.97
2022-11-04T16:03:22.897Z,47.47
2022-11-04T16:06:04.093Z,47.01
2022-11-04T16:08:33.106Z,47.11
2022-11-04T16:11:12.816Z,47.78
2022-11-04T16:13:41.811Z,47.66
2022-11-04T16:16:22.872Z,47.04
2022-11-04T16:18:53.272Z,48.50
2022-11-04T16:21:24.777Z,49.38
2022-11-04T16:23:55.592Z,50.44
2022-11-04T16:26:26.145Z,51.70
2022-11-04T16:28:55.851Z,52.24
2022-11-04T16:31:28.955Z,52.28
2022-11-04T16:33:57.594Z,52.37
2022-11-04T16:36:30.921Z,52.92
2022-11-04T16:39:04.903Z,52.98
2022-11-04T16:41:34.860Z,53.67
2022-11-04T16:44:04.160Z,53.65
2022-11-04T16:46:33.159Z,53.83
2022-11-04T16:49:01.533Z,53.44
2022-11-04T16:51:33.192Z,53.61
2022-11-04T16:54:01.669Z,53.50
2022-11-04T16:56:29.955Z,53.63
2022-11-04T16:58:58.429Z,53.81
2022-11-04T17:01:27.703Z,54.52
2022-11-04T17:03:56.110Z,54.16
2022-11-04T17:06:25.719Z,54.59
2022-11-04T17:08:54.713Z,55.45
2022-11-04T17:11:23.094Z,54.89
2022-11-04T17:13:51.482Z,54.83
2022-11-04T17:16:20.058Z,55.43
2022-11-04T17:18:48.746Z,55.72
2022-11-04T17:21:20.504Z,56.08
2022-11-04T17:23:49.063Z,56.47
2022-11-04T17:26:17.364Z,56.55
2022-11-04T17:28:46.153Z,56.62
2022-11-04T17:31:19.142Z,56.27
2022-11-04T17:33:47.931Z,56.60
2022-11-04T17:36:18.189Z,57.23
2022-11-04T17:38:47.154Z,57.02
2022-11-04T17:41:34.370Z,57.13
2022-11-04T17:44:03.261Z,57.72
2022-11-04T17:46:35.469Z,57.81
2022-11-04T17:49:04.222Z,58.09
2022-11-04T17:51:32.598Z,59.81
2022-11-04T17:54:01.289Z,58.36
2022-11-04T17:56:31.207Z,58.11
2022-11-04T17:59:01.466Z,58.52
2022-11-04T18:01:30.180Z,58.53
2022-11-04T18:03:59.209Z,58.83
2022-11-04T18:06:29.843Z,58.99
2022-11-04T18:08:58.359Z,58.88
2022-11-04T18:11:47.599Z,58.47
2022-11-04T18:14:17.457Z,58.73
2022-11-04T18:16:47.189Z,58.75
2022-11-04T18:19:16.420Z,58.75
2022-11-04T18:21:45.212Z,58.84
2022-11-04T18:24:14.151Z,58.62
2022-11-04T18:26:42.990Z,58.29
2022-11-04T18:29:11.554Z,58.87
2022-11-04T18:31:46.123Z,59.00
2022-11-04T18:34:19.486Z,59.27
2022-11-04T18:36:48.695Z,59.15
2022-11-04T18:39:18.327Z,60.00
2022-11-04T18:41:46.789Z,59.88
2022-11-04T18:44:16.703Z,59.81
2022-11-04T18:46:44.983Z,60.05
2022-11-04T18:49:13.666Z,60.70
2022-11-04T18:51:42.460Z,60.35
2022-11-04T18:54:11.039Z,60.65
2022-11-04T18:56:39.525Z,61.12
2022-11-04T18:59:12.921Z,61.21
2022-11-04T19:01:42.501Z,61.54
2022-11-04T19:04:11.627Z,61.43
2022-11-04T19:06:41.552Z,62.71
2022-11-04T19:12:18.966Z,63.00
2022-11-04T19:14:47.436Z,63.51
2022-11-04T19:17:16.327Z,64.69
2022-11-04T19:19:45.116Z,65.17
2022-11-04T19:22:13.499Z,66.23
2022-11-04T19:24:42.185Z,66.82
2022-11-04T19:27:10.514Z,66.90
2022-11-04T19:29:38.943Z,68.41
2022-11-04T19:32:13.865Z,68.53
2022-11-04T19:34:43.707Z,67.95
2022-11-04T19:37:12.069Z,67.73
2022-11-04T19:39:40.655Z,67.87
2022-11-04T19:42:29.045Z,67.53
2022-11-04T19:44:57.586Z,67.99
2022-11-04T19:47:26.376Z,67.87
2022-11-04T19:49:55.687Z,67.45
2022-11-04T19:52:24.260Z,67.68
2022-11-04T19:54:52.639Z,68.30
2022-11-04T19:57:21.329Z,68.88
2022-11-04T19:59:50.219Z,68.58
2022-11-04T20:02:18.951Z,68.00
2022-11-04T20:04:50.267Z,68.55
2022-11-04T20:07:19.249Z,68.89
2022-11-04T20:09:47.629Z,68.83
2022-11-04T20:12:34.508Z,68.48
2022-11-04T20:15:03.642Z,68.29
2022-11-04T20:17:33.261Z,68.13
2022-11-04T20:20:01.532Z,68.50
2022-11-04T20:22:30.213Z,68.29
2022-11-04T20:24:58.592Z,67.98
2022-11-04T20:27:26.973Z,68.02
2022-11-04T20:29:55.613Z,68.94
2022-11-04T20:32:24.039Z,69.41
2022-11-04T20:34:53.759Z,69.92
2022-11-04T20:37:22.539Z,69.95
2022-11-04T20:39:50.979Z,70.21
2022-11-04T20:42:19.400Z,70.82
2022-11-04T20:44:48.190Z,71.09
2022-11-04T20:47:17.696Z,71.32
2022-11-04T20:49:46.107Z,71.34
2022-11-04T20:52:14.540Z,71.16
2022-11-04T20:54:43.142Z,70.83
2022-11-04T20:57:11.625Z,71.04
2022-11-04T20:59:40.419Z,70.99
2022-11-04T21:02:10.765Z,71.94
2022-11-04T21:04:39.733Z,72.25
2022-11-04T21:07:08.318Z,72.66
2022-11-04T21:09:37.005Z,72.68
2022-11-04T21:12:05.690Z,72.45
2022-11-04T21:14:35.674Z,72.70
2022-11-04T21:17:06.774Z,72.90
2022-11-04T21:19:35.645Z,73.15
2022-11-04T21:22:03.920Z,73.16
2022-11-04T21:24:37.950Z,72.85
2022-11-04T21:27:08.053Z,73.14
2022-11-04T21:29:36.844Z,73.04
2022-11-04T21:32:05.325Z,73.19
2022-11-04T21:34:34.011Z,73.32
2022-11-04T21:37:02.492Z,73.73
2022-11-04T21:39:30.879Z,73.60
2022-11-04T21:41:59.456Z,73.43
2022-11-04T21:44:28.143Z,73.50
2022-11-04T21:46:56.569Z,73.95
2022-11-04T21:49:24.903Z,73.66
2022-11-04T21:51:53.487Z,73.48
2022-11-04T21:54:21.973Z,73.83
2022-11-04T21:56:50.720Z,74.10
2022-11-04T21:59:19.242Z,74.14
2022-11-04T22:01:47.847Z,74.63
2022-11-04T22:04:16.511Z,73.94
2022-11-04T22:06:45.711Z,73.53
2022-11-04T22:09:14.295Z,72.78
2022-11-04T22:11:42.983Z,72.82
2022-11-04T22:14:12.136Z,72.70
2022-11-04T22:16:40.843Z,72.83
2022-11-04T22:19:10.552Z,72.89
2022-11-04T22:21:40.328Z,73.44
2022-11-04T22:24:10.615Z,74.08
2022-11-04T22:26:39.506Z,74.64
2022-11-04T22:29:08.400Z,74.59
2022-11-04T22:31:39.441Z,74.25
2022-11-04T22:34:07.720Z,75.74
2022-11-04T22:36:36.514Z,76.45
2022-11-04T22:39:06.828Z,76.26
2022-11-04T22:41:37.670Z,76.76
2022-11-04T22:44:06.562Z,76.39
2022-11-04T22:46:35.412Z,76.67
2022-11-04T22:49:03.731Z,76.43
2022-11-04T22:51:32.828Z,76.58
2022-11-04T22:54:07.540Z,76.62
2022-11-04T22:56:37.061Z,76.30
2022-11-04T22:59:05.647Z,76.33
2022-11-04T23:01:34.584Z,76.55
2022-11-04T23:04:03.230Z,76.35
2022-11-04T23:06:31.720Z,76.74
2022-11-04T23:09:00.900Z,76.50
2022-11-04T23:11:49.051Z,76.40
2022-11-04T23:14:40.473Z,76.68
2022-11-04T23:17:34.348Z,77.18
2022-11-04T23:20:03.037Z,78.44
2022-11-04T23:22:50.255Z,78.47
2022-11-04T23:25:18.740Z,78.16
2022-11-04T23:28:06.984Z,78.95
2022-11-04T23:30:37.206Z,80.16
2022-11-04T23:33:06.916Z,80.05
2022-11-04T23:35:55.368Z,80.67
2022-11-04T23:38:24.155Z,80.69
2022-11-04T23:41:14.041Z,81.92
2022-11-04T23:43:43.044Z,82.06
2022-11-04T23:46:30.598Z,81.07
2022-11-04T23:49:18.193Z,80.08
2022-11-04T23:52:05.211Z,80.12
2022-11-04T23:54:52.432Z,79.89
2022-11-04T23:57:39.345Z,79.84
